Time;durP1;ratioP1;P1;durP2;ratioP2;P2;SDS_P1;SDS_P2;PMS_P1;PMS_P2;Temp;Humidity;BMP_temperature;BMP_pressure;BME280_temperature;BME280_humidity;BME280_pressure;Samples;Min_cycle;Max_cycle;Signal;HPM_P1;HPM_P2
2021/10/09 00:02:20;;;;;;;36.00;25.70;;;9.50;99.90;;;;;;5075659;28;20663;-66
2021/10/09 00:04:47;;;;;;;40.60;28.17;;;9.40;99.90;;;;;;5075720;28;20204;-66
2021/10/09 00:07:13;;;;;;;42.15;29.00;;;9.40;99.90;;;;;;5075500;28;20188;-66
2021/10/09 00:09:39;;;;;;;40.15;27.40;;;9.40;99.90;;;;;;5075719;28;20597;-66
2021/10/09 00:12:07;;;;;;;43.38;27.90;;;9.40;99.90;;;;;;5075371;28;20207;-66
2021/10/09 00:14:33;;;;;;;43.72;29.92;;;9.40;99.90;;;;;;5075633;28;20203;-66
2021/10/09 00:16:59;;;;;;;42.90;28.50;;;9.30;99.90;;;;;;5075198;28;20227;-67
2021/10/09 00:19:26;;;;;;;40.33;26.80;;;9.30;99.90;;;;;;5075774;28;20184;-66
2021/10/09 00:21:54;;;;;;;43.30;28.25;;;9.30;99.90;;;;;;5075303;28;20667;-65
2021/10/09 00:24:21;;;;;;;39.50;27.02;;;9.20;99.90;;;;;;5075084;28;20192;-66
2021/10/09 00:26:48;;;;;;;38.53;27.50;;;9.20;99.90;;;;;;5075256;28;20568;-66
2021/10/09 00:29:14;;;;;;;42.67;29.48;;;9.10;99.90;;;;;;5074804;28;20231;-66
2021/10/09 00:31:40;;;;;;;41.28;28.45;;;9.10;99.90;;;;;;5074976;28;20195;-66
2021/10/09 00:34:07;;;;;;;49.22;30.17;;;9.10;99.90;;;;;;5075010;28;20210;-65
2021/10/09 00:36:33;;;;;;;44.05;28.45;;;9.10;99.90;;;;;;5073581;28;20196;-66
2021/10/09 00:39:01;;;;;;;48.22;30.60;;;9.00;99.90;;;;;;5075282;28;20570;-66
2021/10/09 00:41:28;;;;;;;47.22;30.45;;;9.00;99.90;;;;;;5074856;28;20211;-66
2021/10/09 00:43:55;;;;;;;45.10;31.85;;;9.00;99.90;;;;;;5074695;28;20189;-66
2021/10/09 00:46:21;;;;;;;46.75;30.35;;;9.00;99.90;;;;;;5074969;28;20265;-66
2021/10/09 00:48:48;;;;;;;47.40;31.73;;;9.00;99.90;;;;;;5074306;28;20235;-66
2021/10/09 00:51:14;;;;;;;49.13;31.73;;;9.00;99.90;;;;;;5074638;28;20192;-66
2021/10/09 00:53:41;;;;;;;42.88;29.25;;;8.90;99.90;;;;;;5075012;28;20742;-66
2021/10/09 00:56:08;;;;;;;44.92;30.17;;;9.00;99.90;;;;;;5074393;28;20187;-66
2021/10/09 00:58:38;;;;;;;44.42;29.83;;;9.00;99.90;;;;;;5074475;28;20203;-66
2021/10/09 01:01:04;;;;;;;57.15;31.45;;;9.00;99.90;;;;;;5075268;28;20283;-66
2021/10/09 01:03:31;;;;;;;46.92;31.52;;;9.00;99.90;;;;;;5075380;28;20207;-67
2021/10/09 01:05:57;;;;;;;49.60;32.45;;;9.00;99.90;;;;;;5075510;28;20222;-67
2021/10/09 01:08:24;;;;;;;48.88;29.30;;;9.00;99.90;;;;;;5074809;28;20220;-68
2021/10/09 01:10:50;;;;;;;41.38;30.92;;;9.10;99.90;;;;;;5075001;28;20203;-68
2021/10/09 01:13:16;;;;;;;42.30;30.30;;;9.10;99.90;;;;;;5075228;28;20191;-68
2021/10/09 01:15:44;;;;;;;43.25;30.27;;;9.20;99.90;;;;;;5074986;28;20195;-67
2021/10/09 01:18:13;;;;;;;44.92;29.65;;;9.20;99.90;;;;;;5074894;28;20235;-67
2021/10/09 01:21:02;;;;;;;42.47;28.30;;;9.20;99.90;;;;;;5075111;28;20207;-67
2021/10/09 01:23:29;;;;;;;39.33;27.67;;;9.10;99.90;;;;;;5074453;28;20191;-67
2021/10/09 01:25:55;;;;;;;46.08;29.83;;;9.10;99.90;;;;;;5074551;28;20261;-67
2021/10/09 01:28:22;;;;;;;45.38;28.40;;;9.00;99.90;;;;;;5074777;28;20227;-67
2021/10/09 01:30:52;;;;;;;49.50;30.63;;;9.00;99.90;;;;;;5074472;28;20249;-67
2021/10/09 01:33:19;;;;;;;49.03;30.90;;;8.90;99.90;;;;;;5074480;28;20701;-67
2021/10/09 01:35:54;;;;;;;44.25;28.95;;;8.90;99.90;;;;;;5074237;28;20644;-67
2021/10/09 01:38:22;;;;;;;43.05;28.85;;;8.90;99.90;;;;;;5074295;28;20234;-67
2021/10/09 01:40:48;;;;;;;44.53;28.27;;;8.80;99.90;;;;;;5074499;28;20258;-67
2021/10/09 01:43:17;;;;;;;51.58;29.52;;;8.80;99.90;;;;;;5074413;28;20191;-67
2021/10/09 01:45:45;;;;;;;45.03;28.35;;;8.80;99.90;;;;;;5074485;28;20199;-67
2021/10/09 01:48:13;;;;;;;38.67;28.30;;;8.80;99.90;;;;;;5074542;28;20234;-67
2021/10/09 01:50:40;;;;;;;47.83;30.85;;;8.80;99.90;;;;;;5074484;28;20200;-67
2021/10/09 01:53:07;;;;;;;42.50;30.02;;;8.80;99.90;;;;;;5073823;28;20643;-67
2021/10/09 01:55:35;;;;;;;48.30;32.67;;;8.80;99.90;;;;;;5074179;28;20212;-67
2021/10/09 01:58:02;;;;;;;50.40;30.17;;;8.80;99.90;;;;;;5074206;28;20196;-67
2021/10/09 02:00:28;;;;;;;47.53;32.97;;;8.80;99.90;;;;;;5072483;28;20661;-67
2021/10/09 02:03:00;;;;;;;47.10;31.10;;;8.70;99.90;;;;;;5074352;28;20651;-67
2021/10/09 02:05:26;;;;;;;44.65;29.77;;;8.70;99.90;;;;;;5074196;28;20219;-67
2021/10/09 02:07:53;;;;;;;46.67;29.30;;;8.70;99.90;;;;;;5074217;28;20667;-67
2021/10/09 02:10:19;;;;;;;53.15;30.05;;;8.70;99.90;;;;;;5074194;28;20666;-67
2021/10/09 02:12:46;;;;;;;46.83;30.83;;;8.70;99.90;;;;;;5074016;28;20204;-67
2021/10/09 02:15:16;;;;;;;50.35;32.53;;;8.70;99.90;;;;;;5075074;28;20227;-67
2021/10/09 02:25:47;;;;;;;51.85;29.73;;;8.70;99.90;;;;;;5074120;28;20600;-67
2021/10/09 02:28:24;;;;;;;43.33;29.08;;;8.70;99.90;;;;;;5074138;28;20227;-67
2021/10/09 02:30:52;;;;;;;53.40;31.10;;;8.70;99.90;;;;;;5073915;28;20171;-67
2021/10/09 02:33:18;;;;;;;44.33;30.45;;;8.70;99.90;;;;;;5073930;28;20214;-67
2021/10/09 02:35:46;;;;;;;44.97;30.83;;;8.70;99.90;;;;;;5074439;28;20200;-67
2021/10/09 02:38:13;;;;;;;45.58;29.70;;;8.70;99.90;;;;;;5077844;28;20199;-67
2021/10/09 02:40:44;;;;;;;51.03;30.38;;;8.70;99.90;;;;;;5078141;28;20208;-67
2021/10/09 02:43:11;;;;;;;49.08;32.05;;;8.70;99.90;;;;;;5078386;28;20223;-67
2021/10/09 02:45:38;;;;;;;48.05;30.55;;;8.60;99.90;;;;;;5077675;28;20204;-67
2021/10/09 02:48:06;;;;;;;47.58;31.50;;;8.70;99.90;;;;;;5076657;28;20733;-67
2021/10/09 02:50:33;;;;;;;40.63;29.25;;;8.70;99.90;;;;;;5077716;28;20560;-67
2021/10/09 02:53:00;;;;;;;43.35;29.30;;;8.70;99.90;;;;;;5077596;28;20643;-67
2021/10/09 02:55:26;;;;;;;52.40;30.38;;;8.60;99.90;;;;;;5077386;28;20207;-67
2021/10/09 02:57:52;;;;;;;54.10;31.98;;;8.60;99.90;;;;;;5077377;28;20196;-67
2021/10/09 03:00:21;;;;;;;45.72;29.58;;;8.50;99.90;;;;;;5076984;28;20230;-67
2021/10/09 03:02:47;;;;;;;42.83;30.48;;;8.50;99.90;;;;;;5076812;28;20203;-67
2021/10/09 03:05:14;;;;;;;54.35;33.20;;;8.50;99.90;;;;;;5076366;28;20648;-67
2021/10/09 03:07:40;;;;;;;48.17;30.02;;;8.50;99.90;;;;;;5069750;28;20197;-67
2021/10/09 03:10:08;;;;;;;48.15;30.08;;;8.40;99.90;;;;;;5056714;28;20247;-67
2021/10/09 03:12:36;;;;;;;43.75;26.92;;;8.50;99.90;;;;;;5074363;28;20645;-67
2021/10/09 03:15:10;;;;;;;47.97;28.08;;;8.50;99.90;;;;;;5076762;28;20663;-67
2021/10/09 03:17:38;;;;;;;38.83;27.50;;;8.50;99.90;;;;;;5075623;28;20228;-67
2021/10/09 03:20:06;;;;;;;41.03;28.05;;;8.60;99.90;;;;;;5075868;28;20200;-67
2021/10/09 03:22:33;;;;;;;44.92;28.83;;;8.50;99.90;;;;;;5076984;28;20530;-67
2021/10/09 03:24:59;;;;;;;41.08;28.70;;;8.50;99.90;;;;;;5076803;28;20674;-67
2021/10/09 03:27:29;;;;;;;50.17;29.20;;;8.40;99.90;;;;;;5076605;28;20199;-67
2021/10/09 03:29:55;;;;;;;41.22;27.52;;;8.40;99.90;;;;;;5076663;28;20246;-67
2021/10/09 03:32:21;;;;;;;48.28;28.98;;;8.40;99.90;;;;;;5076663;28;20559;-67
2021/10/09 03:34:47;;;;;;;46.80;28.83;;;8.40;99.90;;;;;;5076315;28;20192;-67
2021/10/09 03:37:14;;;;;;;44.00;29.00;;;8.40;99.90;;;;;;5074980;28;20200;-67
2021/10/09 03:39:44;;;;;;;47.15;27.25;;;8.40;99.90;;;;;;5076536;28;20204;-67
2021/10/09 03:42:18;;;;;;;44.72;29.00;;;8.30;99.90;;;;;;5076660;28;20577;-67
2021/10/09 03:45:10;;;;;;;43.60;29.40;;;8.20;99.90;;;;;;5076801;28;20204;-67
2021/10/09 03:50:07;;;;;;;44.50;29.17;;;8.20;99.90;;;;;;5077019;28;20609;-67
2021/10/09 03:52:36;;;;;;;44.83;28.30;;;8.20;99.90;;;;;;5077056;28;20214;-67
2021/10/09 03:55:14;;;;;;;47.45;29.85;;;8.20;99.90;;;;;;5076979;28;20254;-67
2021/10/09 03:57:41;;;;;;;49.83;31.50;;;8.10;99.90;;;;;;5076332;28;20203;-67
2021/10/09 04:00:11;;;;;;;46.15;30.27;;;8.10;99.90;;;;;;5076283;28;20651;-67
2021/10/09 04:02:38;;;;;;;53.08;34.05;;;8.10;99.90;;;;;;5076471;28;20651;-67
2021/10/09 04:05:06;;;;;;;57.15;33.47;;;8.10;99.90;;;;;;5076865;28;20220;-67
2021/10/09 04:07:32;;;;;;;47.20;31.90;;;8.00;99.90;;;;;;5076032;28;20588;-67
2021/10/09 04:09:59;;;;;;;54.33;32.15;;;8.00;99.90;;;;;;5076642;28;20228;-68
2021/10/09 04:12:26;;;;;;;49.45;31.67;;;7.90;99.90;;;;;;5077004;28;20920;-67
2021/10/09 04:14:53;;;;;;;52.85;33.22;;;7.90;99.90;;;;;;5076323;28;20648;-67
2021/10/09 04:17:19;;;;;;;58.42;31.33;;;7.80;99.90;;;;;;5075753;28;20231;-67
2021/10/09 04:19:46;;;;;;;51.33;33.55;;;7.80;99.90;;;;;;5075863;28;20643;-67
2021/10/09 04:22:12;;;;;;;50.38;34.00;;;7.80;99.90;;;;;;5076425;28;20211;-67
2021/10/09 04:24:39;;;;;;;45.72;31.52;;;7.70;99.90;;;;;;5075761;28;20659;-66
2021/10/09 04:27:05;;;;;;;48.33;31.85;;;7.70;99.90;;;;;;5075364;28;20204;-66
2021/10/09 04:29:31;;;;;;;51.15;33.25;;;7.70;99.90;;;;;;5075127;28;20216;-67
2021/10/09 04:31:58;;;;;;;51.20;31.30;;;7.70;99.90;;;;;;5074694;28;20195;-66
2021/10/09 04:34:24;;;;;;;54.72;32.08;;;7.70;99.90;;;;;;5074126;28;20200;-66
2021/10/09 04:36:51;;;;;;;54.33;34.70;;;7.60;99.90;;;;;;5075161;28;20204;-67
2021/10/09 04:39:17;;;;;;;53.55;33.72;;;7.70;99.90;;;;;;5074749;28;20643;-67
2021/10/09 04:41:43;;;;;;;48.00;32.83;;;7.70;99.90;;;;;;5074432;28;20191;-68
2021/10/09 04:44:10;;;;;;;51.60;31.88;;;7.70;99.90;;;;;;5074334;28;20674;-67
2021/10/09 04:46:36;;;;;;;58.05;35.13;;;7.70;99.90;;;;;;5074414;28;20200;-67
2021/10/09 04:49:02;;;;;;;53.30;30.83;;;7.70;99.90;;;;;;5060156;28;20216;-68
2021/10/09 04:51:29;;;;;;;56.25;34.35;;;7.70;99.90;;;;;;5074348;28;20192;-67
2021/10/09 04:53:55;;;;;;;55.97;34.13;;;7.70;99.90;;;;;;5073927;28;20199;-68
2021/10/09 04:56:21;;;;;;;57.88;35.45;;;7.70;99.90;;;;;;5074275;28;20188;-67
2021/10/09 04:58:48;;;;;;;59.40;33.70;;;7.70;99.90;;;;;;5073448;28;20656;-68
2021/10/09 05:01:14;;;;;;;57.08;33.22;;;7.70;99.90;;;;;;5073922;28;20199;-68
2021/10/09 05:03:42;;;;;;;47.60;30.17;;;7.70;99.90;;;;;;5073866;28;20199;-68
2021/10/09 05:06:09;;;;;;;52.20;32.55;;;7.70;99.90;;;;;;5073861;28;20195;-67
2021/10/09 05:08:36;;;;;;;59.67;32.17;;;7.70;99.90;;;;;;5073895;28;20230;-67
2021/10/09 05:11:02;;;;;;;54.35;34.08;;;7.70;99.90;;;;;;5074136;28;20204;-67
2021/10/09 05:13:31;;;;;;;54.42;32.75;;;7.70;99.90;;;;;;5073908;28;20206;-67
2021/10/09 05:15:58;;;;;;;55.97;33.60;;;7.70;99.90;;;;;;5071679;28;20200;-67
2021/10/09 05:18:24;;;;;;;48.97;32.17;;;7.70;99.90;;;;;;5060980;28;20301;-68
2021/10/09 05:20:50;;;;;;;47.88;32.83;;;7.70;99.90;;;;;;5073918;28;20192;-68
2021/10/09 05:23:17;;;;;;;50.13;32.65;;;7.80;99.90;;;;;;5072708;28;20547;-68
2021/10/09 05:25:44;;;;;;;48.70;31.58;;;7.80;99.90;;;;;;5074219;28;20208;-67
2021/10/09 05:28:16;;;;;;;53.28;32.03;;;7.80;99.90;;;;;;5056023;28;20664;-67
2021/10/09 05:30:47;;;;;;;55.33;32.78;;;7.80;99.90;;;;;;5064784;28;20200;-67
2021/10/09 05:33:24;;;;;;;45.75;31.20;;;7.80;99.90;;;;;;5072500;28;20204;-67
2021/10/09 05:35:51;;;;;;;44.65;28.85;;;7.80;99.90;;;;;;5074055;28;20212;-67
2021/10/09 05:38:17;;;;;;;52.83;34.00;;;7.80;99.90;;;;;;5073961;28;20215;-67
2021/10/09 05:40:43;;;;;;;53.05;32.60;;;7.70;99.90;;;;;;5073425;28;20238;-67
2021/10/09 05:43:10;;;;;;;58.13;32.53;;;7.70;99.90;;;;;;5073439;28;20188;-67
2021/10/09 05:45:36;;;;;;;54.28;33.75;;;7.70;99.90;;;;;;5073595;28;20215;-67
2021/10/09 05:48:03;;;;;;;45.67;32.13;;;7.60;99.90;;;;;;5065493;28;20216;-67
2021/10/09 05:50:36;;;;;;;49.72;33.35;;;7.60;99.90;;;;;;5064665;28;20270;-67
2021/10/09 05:55:40;;;;;;;49.55;31.42;;;7.50;99.90;;;;;;5073047;28;20192;-67
2021/10/09 06:42:22;;;;;;;49.20;32.00;;;7.80;99.90;;;;;;5073894;28;20207;-67
2021/10/09 07:00:21;;;;;;;47.88;29.33;;;8.40;99.90;;;;;;5074179;28;20184;-66
2021/10/09 07:02:47;;;;;;;45.05;28.95;;;8.50;99.90;;;;;;5073581;28;20200;-66
2021/10/09 07:05:14;;;;;;;40.97;29.15;;;8.50;99.90;;;;;;5073763;28;20195;-66
2021/10/09 07:07:44;;;;;;;39.58;28.00;;;8.60;99.90;;;;;;5073876;28;20196;-67
2021/10/09 07:10:12;;;;;;;38.60;26.63;;;8.70;99.90;;;;;;5073825;28;20675;-68
2021/10/09 07:12:39;;;;;;;41.67;26.83;;;8.80;99.90;;;;;;5074039;28;20188;-68
2021/10/09 07:15:07;;;;;;;44.03;25.80;;;9.00;99.90;;;;;;5075632;28;20261;-68
2021/10/09 07:17:34;;;;;;;40.78;25.83;;;9.10;99.90;;;;;;5074812;28;20232;-68
2021/10/09 07:20:01;;;;;;;34.42;24.75;;;9.10;99.90;;;;;;5075947;28;20577;-68
2021/10/09 07:22:27;;;;;;;40.20;26.83;;;9.20;99.90;;;;;;5076411;28;20561;-68
2021/10/09 07:24:54;;;;;;;35.22;25.48;;;9.30;99.90;;;;;;5078593;28;20200;-68
2021/10/09 07:27:20;;;;;;;35.25;26.23;;;9.40;99.90;;;;;;5078529;28;20658;-68
2021/10/09 07:29:46;;;;;;;38.55;26.33;;;9.40;99.90;;;;;;5077624;28;20216;-68
2021/10/09 07:32:12;;;;;;;49.35;27.63;;;9.50;99.90;;;;;;5078721;28;20198;-65
2021/10/09 07:34:39;;;;;;;44.33;26.20;;;9.70;99.90;;;;;;5078601;28;20196;-68
2021/10/09 07:37:06;;;;;;;36.03;26.42;;;9.80;99.90;;;;;;5079085;28;20204;-68
2021/10/09 07:39:32;;;;;;;48.10;26.38;;;9.90;99.90;;;;;;5077682;28;20212;-68
2021/10/09 07:42:00;;;;;;;34.35;24.00;;;9.90;99.90;;;;;;5078385;28;20216;-68
2021/10/09 07:44:28;;;;;;;36.03;23.73;;;10.00;99.90;;;;;;5077801;28;20192;-68
2021/10/09 07:46:55;;;;;;;40.25;22.45;;;10.20;99.90;;;;;;5077805;28;20188;-68
2021/10/09 07:49:21;;;;;;;36.25;24.42;;;10.30;99.90;;;;;;5078626;28;20220;-68
2021/10/09 07:51:48;;;;;;;28.92;22.58;;;10.40;99.90;;;;;;5078895;28;20207;-68
2021/10/09 07:54:15;;;;;;;34.25;21.45;;;10.50;99.90;;;;;;5079344;28;20200;-68
2021/10/09 07:56:41;;;;;;;29.65;21.17;;;10.60;99.90;;;;;;5079716;28;20200;-68
2021/10/09 07:59:07;;;;;;;37.45;23.20;;;10.70;99.90;;;;;;5080266;28;20531;-68
2021/10/09 08:01:34;;;;;;;35.58;21.73;;;10.80;99.90;;;;;;5078021;28;20279;-68
2021/10/09 08:04:00;;;;;;;33.95;21.42;;;10.70;99.90;;;;;;5076673;28;20288;-68
2021/10/09 08:06:27;;;;;;;30.15;22.02;;;10.70;99.90;;;;;;5078142;28;20192;-68
2021/10/09 08:08:53;;;;;;;31.55;19.85;;;10.90;99.90;;;;;;5079067;28;20575;-68
2021/10/09 08:11:20;;;;;;;31.42;20.73;;;10.90;99.90;;;;;;5077534;28;20211;-68
2021/10/09 08:13:46;;;;;;;36.58;21.25;;;11.00;99.90;;;;;;5078089;28;20200;-68
2021/10/09 08:16:12;;;;;;;28.90;20.35;;;11.10;99.90;;;;;;5078476;28;20192;-68
2021/10/09 08:18:40;;;;;;;31.55;21.23;;;11.20;99.90;;;;;;5078349;28;20232;-68
2021/10/09 08:21:06;;;;;;;29.40;21.27;;;11.20;99.90;;;;;;5077746;28;20212;-67
2021/10/09 08:23:49;;;;;;;24.85;18.45;;;11.40;99.90;;;;;;5079168;28;20204;-67
2021/10/09 08:39:44;;;;;;;27.48;18.77;;;12.00;99.90;;;;;;5083025;28;20196;-67
2021/10/09 08:42:12;;;;;;;24.95;18.83;;;12.00;99.90;;;;;;5081778;28;20603;-67
2021/10/09 08:44:40;;;;;;;20.50;18.00;;;12.10;99.90;;;;;;5078482;28;20617;-67
2021/10/09 08:47:09;;;;;;;32.97;18.80;;;12.10;99.90;;;;;;5079382;28;20296;-68
2021/10/09 08:49:35;;;;;;;22.80;16.63;;;12.20;99.90;;;;;;5077523;28;20302;-68
2021/10/09 08:52:03;;;;;;;28.15;17.80;;;12.20;99.90;;;;;;5077849;28;20200;-66
2021/10/09 08:54:37;;;;;;;23.15;17.08;;;12.40;99.90;;;;;;5080534;28;20202;-66
2021/10/09 08:57:14;;;;;;;21.63;18.00;;;12.60;99.90;;;;;;5080613;28;20199;-67
2021/10/09 08:59:48;;;;;;;30.47;18.27;;;12.70;99.90;;;;;;5080684;28;20295;-67
2021/10/09 09:05:38;;;;;;;23.70;17.37;;;12.90;99.90;;;;;;5080993;28;20614;-67
2021/10/09 09:33:22;;;;;;;25.80;19.07;;;13.10;99.90;;;;;;5079315;28;20645;-69
2021/10/09 09:41:21;;;;;;;26.80;19.20;;;13.20;99.90;;;;;;5080442;28;20665;-68
2021/10/09 09:43:51;;;;;;;26.30;19.37;;;13.30;99.90;;;;;;5080534;28;20614;-68
2021/10/09 09:46:22;;;;;;;29.02;19.38;;;13.40;99.90;;;;;;5081386;28;20626;-68
2021/10/09 09:48:48;;;;;;;27.70;18.50;;;13.60;99.90;;;;;;5080912;28;20737;-68
2021/10/09 09:51:19;;;;;;;31.43;18.30;;;13.70;99.90;;;;;;5077752;28;21113;-68
2021/10/09 09:53:47;;;;;;;21.27;17.53;;;13.70;99.90;;;;;;5080578;28;20614;-67
2021/10/09 09:56:14;;;;;;;22.73;16.80;;;13.90;99.90;;;;;;5081011;28;20617;-67
2021/10/09 09:58:50;;;;;;;21.73;16.00;;;14.00;99.90;;;;;;5083853;28;20614;-66
2021/10/09 10:01:18;;;;;;;33.97;16.73;;;14.20;99.90;;;;;;5083218;28;20985;-66
2021/10/09 10:03:48;;;;;;;28.53;16.97;;;14.60;99.90;;;;;;5081791;28;20598;-67
2021/10/09 10:06:16;;;;;;;24.70;15.90;;;14.70;99.90;;;;;;5081995;28;20618;-67
2021/10/09 10:08:43;;;;;;;25.43;17.27;;;14.70;99.90;;;;;;5081558;28;20598;-67
2021/10/09 10:11:12;;;;;;;26.73;16.23;;;15.00;99.90;;;;;;5081919;28;20638;-67
2021/10/09 10:13:39;;;;;;;21.30;16.83;;;15.30;99.90;;;;;;5077264;28;21093;-67
2021/10/09 10:16:09;;;;;;;25.97;16.20;;;15.40;99.90;;;;;;5077684;28;20618;-67
2021/10/09 10:18:44;;;;;;;20.77;15.87;;;15.50;99.90;;;;;;5080770;28;20646;-67
2021/10/09 10:21:28;;;;;;;23.57;16.00;;;15.40;99.90;;;;;;5079469;28;20629;-67
2021/10/09 10:23:54;;;;;;;30.87;14.97;;;15.80;99.90;;;;;;5079730;28;21065;-67
2021/10/09 10:26:21;;;;;;;23.40;14.90;;;15.90;99.90;;;;;;5076708;28;20628;-67
2021/10/09 10:29:08;;;;;;;21.70;16.20;;;15.90;99.90;;;;;;5080686;28;20686;-67
2021/10/09 10:31:35;;;;;;;17.50;14.07;;;15.80;99.90;;;;;;5078432;28;20669;-67
2021/10/09 10:34:20;;;;;;;25.33;15.90;;;16.00;99.90;;;;;;5077808;28;20621;-67
2021/10/09 10:36:47;;;;;;;20.67;16.23;;;16.00;99.90;;;;;;5076438;28;20622;-67
2021/10/09 10:39:21;;;;;;;24.47;17.00;;;15.90;99.90;;;;;;5077713;28;20976;-67
2021/10/09 10:42:02;;;;;;;24.90;15.93;;;16.10;99.90;;;;;;5078888;28;20589;-67
2021/10/09 10:45:16;;;;;;;20.20;15.60;;;16.00;99.90;;;;;;5077434;28;20621;-67
2021/10/09 10:48:05;;;;;;;20.57;15.20;;;16.30;99.90;;;;;;5076030;28;20657;-67
2021/10/09 10:53:15;;;;;;;24.03;14.70;;;17.20;99.90;;;;;;5074011;28;21133;-67
2021/10/09 10:56:10;;;;;;;18.57;15.50;;;17.10;99.90;;;;;;5074495;28;20590;-67
2021/10/09 10:58:38;;;;;;;19.13;14.40;;;16.60;99.90;;;;;;5077365;28;20586;-67
2021/10/09 11:01:21;;;;;;;18.93;13.73;;;17.10;99.90;;;;;;5077523;28;20601;-67
2021/10/09 11:03:57;;;;;;;13.87;12.37;;;17.40;99.90;;;;;;5077482;28;20903;-68
2021/10/09 11:06:25;;;;;;;20.97;14.23;;;17.30;99.90;;;;;;5077342;28;21154;-68
2021/10/09 11:08:53;;;;;;;16.23;13.63;;;17.70;99.90;;;;;;5076998;28;20593;-67
2021/10/09 11:11:42;;;;;;;21.83;14.43;;;18.10;99.90;;;;;;5078332;28;20662;-67
2021/10/09 11:14:08;;;;;;;17.00;12.57;;;18.80;99.90;;;;;;5078402;28;20968;-68
2021/10/09 11:16:35;;;;;;;18.70;14.67;;;18.80;99.90;;;;;;5077293;28;20614;-67
2021/10/09 11:19:01;;;;;;;15.00;12.60;;;18.40;99.90;;;;;;5077314;28;20563;-67
2021/10/09 11:21:27;;;;;;;18.10;13.43;;;19.00;99.90;;;;;;5079281;28;20613;-67
2021/10/09 11:23:57;;;;;;;19.17;13.50;;;18.60;99.90;;;;;;5077507;28;20591;-67
2021/10/09 11:26:25;;;;;;;14.93;12.03;;;18.60;99.90;;;;;;5076611;28;21128;-67
2021/10/09 11:29:05;;;;;;;23.03;12.50;;;18.20;99.90;;;;;;5076576;28;21176;-67
2021/10/09 11:31:31;;;;;;;21.13;12.47;;;18.30;99.90;;;;;;5076874;28;20645;-67
2021/10/09 11:34:02;;;;;;;16.80;12.30;;;18.50;99.90;;;;;;5077154;28;21163;-67
2021/10/09 11:36:29;;;;;;;14.90;11.70;;;18.90;99.90;;;;;;5076680;28;20598;-67
2021/10/09 11:39:14;;;;;;;13.63;11.83;;;18.80;99.90;;;;;;5076548;28;21133;-67
2021/10/09 11:42:01;;;;;;;26.70;14.63;;;18.80;99.90;;;;;;5076510;28;20562;-67
2021/10/09 11:44:33;;;;;;;13.97;12.57;;;18.70;99.90;;;;;;5076786;28;20634;-67
2021/10/09 11:55:29;;;;;;;15.63;11.00;;;19.80;99.90;;;;;;5075838;28;20585;-67
2021/10/09 11:57:57;;;;;;;16.33;11.63;;;19.20;99.90;;;;;;5076170;28;21163;-68
2021/10/09 12:00:29;;;;;;;16.17;11.90;;;19.00;99.90;;;;;;5075081;28;20618;-67
2021/10/09 12:02:57;;;;;;;14.53;12.00;;;20.20;99.90;;;;;;5067637;28;20644;-67
2021/10/09 12:05:33;;;;;;;15.73;10.70;;;20.60;99.90;;;;;;5076830;28;20613;-67
2021/10/09 12:08:19;;;;;;;19.87;12.00;;;20.70;99.90;;;;;;5067960;28;20632;-67
2021/10/09 12:11:19;;;;;;;17.73;10.60;;;19.80;99.90;;;;;;5069948;28;20664;-67
2021/10/09 12:13:50;;;;;;;16.80;11.40;;;19.90;99.90;;;;;;5068911;28;20622;-67
2021/10/09 12:16:22;;;;;;;22.40;13.90;;;19.80;99.90;;;;;;5075613;28;20606;-67
2021/10/09 12:18:54;;;;;;;19.63;11.63;;;19.60;99.90;;;;;;5024976;28;20640;-69
2021/10/09 12:21:26;;;;;;;18.07;12.03;;;20.60;99.90;;;;;;5026682;28;20659;-68
2021/10/09 12:23:55;;;;;;;14.93;11.30;;;20.20;99.90;;;;;;5024253;28;20592;-67
2021/10/09 12:26:23;;;;;;;12.07;10.80;;;20.20;99.90;;;;;;5035853;28;20628;-68
2021/10/09 12:29:06;;;;;;;17.17;10.97;;;20.40;99.90;;;;;;5035131;28;20619;-67
2021/10/09 12:31:43;;;;;;;14.00;10.97;;;20.20;99.90;;;;;;5035623;28;20650;-67
2021/10/09 12:34:33;;;;;;;14.87;9.60;;;19.40;99.90;;;;;;5035892;28;20577;-67
2021/10/09 12:37:15;;;;;;;17.20;10.43;;;19.60;99.90;;;;;;5036025;28;20604;-67
2021/10/09 12:39:43;;;;;;;15.60;11.00;;;19.80;99.90;;;;;;5038208;28;20632;-67
2021/10/09 12:42:13;;;;;;;12.43;10.03;;;20.90;99.90;;;;;;5037364;28;20612;-68
2021/10/09 12:44:40;;;;;;;10.40;9.40;;;20.60;99.90;;;;;;5035923;28;20639;-67
2021/10/09 12:47:06;;;;;;;13.53;10.83;;;20.40;99.90;;;;;;5036006;28;21096;-67
2021/10/09 12:49:33;;;;;;;13.80;10.10;;;21.00;99.90;;;;;;5036456;28;20658;-67
2021/10/09 12:51:59;;;;;;;16.73;9.40;;;21.30;99.90;;;;;;5037887;28;20647;-67
2021/10/09 12:54:27;;;;;;;14.37;9.73;;;20.90;99.90;;;;;;5037828;28;21147;-67
2021/10/09 12:56:56;;;;;;;12.10;10.07;;;21.20;99.90;;;;;;5040227;28;20624;-67
2021/10/09 12:59:23;;;;;;;12.60;9.30;;;21.70;99.90;;;;;;5041333;28;20622;-67
2021/10/09 13:01:49;;;;;;;14.03;9.40;;;21.40;99.90;;;;;;5038032;28;20626;-67
2021/10/09 13:04:15;;;;;;;10.63;9.20;;;21.20;99.90;;;;;;5038590;28;20596;-68
2021/10/09 13:06:41;;;;;;;14.37;8.80;;;21.50;99.90;;;;;;5038435;28;20606;-67
2021/10/09 13:09:08;;;;;;;11.70;10.30;;;21.40;99.90;;;;;;5037229;28;20975;-68
2021/10/09 13:11:44;;;;;;;11.00;8.70;;;21.50;99.90;;;;;;5037409;28;20654;-66
2021/10/09 13:14:10;;;;;;;13.30;10.00;;;21.10;99.90;;;;;;5039606;28;20642;-66
2021/10/09 13:16:37;;;;;;;15.50;10.83;;;21.70;99.90;;;;;;5045282;28;20622;-67
2021/10/09 13:19:03;;;;;;;10.70;8.47;;;21.90;99.90;;;;;;5077774;28;20912;-67
2021/10/09 13:21:29;;;;;;;9.77;8.77;;;21.00;99.90;;;;;;5076009;28;20640;-66
2021/10/09 13:23:57;;;;;;;9.10;8.20;;;21.30;99.90;;;;;;5075875;28;20622;-67
2021/10/09 13:26:23;;;;;;;16.50;10.50;;;21.10;99.90;;;;;;5077323;28;20598;-67
2021/10/09 13:28:49;;;;;;;12.70;9.80;;;21.20;99.90;;;;;;5077387;28;21137;-68
2021/10/09 13:31:16;;;;;;;10.40;9.27;;;21.40;99.90;;;;;;5077434;28;20665;-67
2021/10/09 13:33:42;;;;;;;9.43;8.57;;;21.90;99.90;;;;;;5078260;28;21042;-67
2021/10/09 13:36:10;;;;;;;9.97;8.07;;;21.70;99.90;;;;;;5077094;28;20634;-68
2021/10/09 13:38:39;;;;;;;9.37;8.37;;;22.30;99.90;;;;;;5075507;28;20598;-67
2021/10/09 13:41:05;;;;;;;9.23;8.10;;;21.40;99.90;;;;;;5074232;28;20646;-67
2021/10/09 13:43:31;;;;;;;12.97;7.87;;;21.10;99.90;;;;;;5074110;28;20622;-67
2021/10/09 13:45:58;;;;;;;9.37;8.03;;;21.40;99.90;;;;;;5074142;28;20617;-67
2021/10/09 13:48:24;;;;;;;11.80;9.00;;;21.80;99.90;;;;;;5077157;28;21220;-68
2021/10/09 13:50:53;;;;;;;17.20;8.03;;;22.00;99.90;;;;;;5075097;28;20646;-68
2021/10/09 13:53:21;;;;;;;8.70;7.90;;;21.80;99.90;;;;;;5073930;28;21160;-67
2021/10/09 13:55:48;;;;;;;11.87;9.07;;;22.20;99.90;;;;;;5073687;28;20995;-67
2021/10/09 13:58:15;;;;;;;14.93;9.30;;;22.70;99.90;;;;;;5073520;28;20598;-67
2021/10/09 14:00:44;;;;;;;12.07;9.23;;;22.30;99.90;;;;;;5073508;28;20614;-67
2021/10/09 14:03:11;;;;;;;8.90;7.60;;;22.20;99.90;;;;;;5073639;28;20901;-67
2021/10/09 14:05:37;;;;;;;11.60;8.40;;;22.60;99.90;;;;;;5073834;28;20637;-67
2021/10/09 14:08:04;;;;;;;8.93;7.93;;;22.50;99.90;;;;;;5072299;28;20618;-67
2021/10/09 14:10:31;;;;;;;14.07;8.43;;;22.50;99.90;;;;;;5071913;28;20666;-67
2021/10/09 14:12:58;;;;;;;12.47;8.30;;;23.70;99.90;;;;;;5073272;28;20697;-66
2021/10/09 14:15:26;;;;;;;8.97;8.03;;;23.20;99.90;;;;;;5073333;28;20590;-67
2021/10/09 14:17:52;;;;;;;10.27;7.57;;;23.30;99.90;;;;;;5073315;28;20981;-67
2021/10/09 14:20:19;;;;;;;10.90;8.80;;;22.70;99.90;;;;;;5073511;28;20618;-67
2021/10/09 14:22:46;;;;;;;11.13;8.63;;;21.40;99.90;;;;;;5073657;28;20618;-67
2021/10/09 14:25:15;;;;;;;11.50;9.20;;;22.10;99.90;;;;;;5073460;28;20606;-67
2021/10/09 14:27:41;;;;;;;13.17;8.40;;;22.60;99.90;;;;;;5073061;28;20603;-67
2021/10/09 14:30:09;;;;;;;10.93;8.47;;;22.50;99.90;;;;;;5073163;28;20606;-67
2021/10/09 14:32:36;;;;;;;10.20;7.67;;;22.60;99.90;;;;;;5077328;28;20610;-67
2021/10/09 14:35:03;;;;;;;12.87;8.87;;;22.20;99.90;;;;;;5077588;28;20614;-66
2021/10/09 14:37:35;;;;;;;9.03;7.93;;;22.80;99.90;;;;;;5077088;28;20629;-67
2021/10/09 14:40:01;;;;;;;12.17;9.20;;;23.20;99.90;;;;;;5077162;28;20618;-67
2021/10/09 14:42:28;;;;;;;10.70;8.77;;;22.40;99.90;;;;;;5076846;28;21000;-66
2021/10/09 14:44:54;;;;;;;14.57;8.57;;;21.60;99.90;;;;;;5077115;28;20622;-67
2021/10/09 15:17:50;;;;;;;14.73;10.03;;;19.20;99.90;;;;;;5077777;28;20633;-67
2021/10/09 15:20:09;;;;;;;12.07;10.13;;;18.50;99.90;;;;;;5077805;28;20644;-66
2021/10/09 15:22:36;;;;;;;11.37;9.40;;;18.00;99.90;;;;;;5078682;28;20614;-66
2021/10/09 15:25:03;;;;;;;16.30;10.67;;;18.00;99.90;;;;;;5078059;28;20600;-66